createdAt,value
2019-04-11T00:00:59.663Z,5.13
2019-04-11T00:03:29.543Z,5.12
2019-04-11T00:05:59.419Z,5.09
2019-04-11T00:08:30.189Z,5.04
2019-04-11T00:11:00.079Z,5.05
2019-04-11T00:13:31.748Z,5.04
2019-04-11T00:16:01.400Z,5.04
2019-04-11T00:18:31.158Z,5.04
2019-04-11T00:21:00.918Z,4.98
2019-04-11T00:23:32.301Z,4.92
2019-04-11T00:26:02.567Z,4.87
2019-04-11T00:28:32.323Z,4.84
2019-04-11T00:31:01.998Z,4.85
2019-04-11T00:33:32.112Z,4.80
2019-04-11T00:36:02.020Z,4.76
2019-04-11T00:38:32.024Z,4.75
2019-04-11T00:41:01.801Z,4.77
2019-04-11T00:43:36.936Z,4.81
2019-04-11T00:46:04.341Z,4.82
2019-04-11T00:48:34.021Z,4.80
2019-04-11T00:51:03.682Z,4.74
2019-04-11T00:53:34.067Z,4.73
2019-04-11T00:56:06.207Z,4.70
2019-04-11T00:58:36.192Z,4.69
2019-04-11T01:01:07.213Z,4.72
2019-04-11T01:03:38.101Z,4.65
2019-04-11T01:06:09.986Z,4.66
2019-04-11T01:08:39.990Z,4.72
2019-04-11T01:11:09.932Z,4.72
2019-04-11T01:13:47.751Z,4.69
2019-04-11T01:16:44.870Z,4.68
2019-04-11T01:19:16.360Z,4.65
2019-04-11T01:21:46.740Z,4.62
2019-04-11T01:24:17.739Z,4.55
2019-04-11T01:26:49.664Z,4.52
2019-04-11T01:29:19.740Z,4.46
2019-04-11T01:31:53.915Z,4.44
2019-04-11T01:34:24.509Z,4.39
2019-04-11T01:36:55.381Z,4.39
2019-04-11T01:39:31.415Z,4.34
2019-04-11T01:42:01.087Z,4.27
2019-04-11T01:44:30.839Z,4.26
2019-04-11T01:47:00.651Z,4.26
2019-04-11T01:49:30.437Z,4.23
2019-04-11T01:52:00.193Z,4.22
2019-04-11T01:54:30.417Z,4.16
2019-04-11T01:57:01.326Z,4.17
2019-04-11T01:59:31.311Z,4.20
2019-04-11T02:02:17.124Z,4.19
2019-04-11T02:05:08.511Z,4.17
2019-04-11T02:07:38.592Z,4.15
2019-04-11T02:10:08.914Z,4.16
2019-04-11T02:12:39.390Z,4.10
2019-04-11T02:15:10.285Z,4.08
2019-04-11T02:17:41.134Z,4.06
2019-04-11T02:20:12.456Z,3.99
2019-04-11T02:22:47.156Z,3.96
2019-04-11T02:25:30.405Z,3.92
2019-04-11T02:28:00.846Z,3.91
2019-04-11T02:30:33.986Z,3.82
2019-04-11T02:33:07.000Z,3.79
2019-04-11T02:35:37.394Z,3.75
2019-04-11T02:38:08.041Z,3.71
2019-04-11T02:40:38.681Z,3.75
2019-04-11T02:43:09.158Z,3.69
2019-04-11T02:45:51.369Z,3.63
2019-04-11T02:48:09.292Z,3.64
2019-04-11T02:50:39.295Z,3.59
2019-04-11T02:53:12.433Z,3.60
2019-04-11T02:55:43.898Z,3.63
2019-04-11T02:58:15.247Z,3.68
2019-04-11T03:00:45.797Z,3.69
2019-04-11T03:03:17.310Z,3.70
2019-04-11T03:05:47.542Z,3.75
2019-04-11T03:08:19.715Z,3.68
2019-04-11T03:10:49.294Z,3.65
2019-04-11T03:13:20.997Z,3.62
2019-04-11T03:16:06.933Z,3.63
2019-04-11T03:18:40.760Z,3.60
2019-04-11T03:20:59.857Z,3.56
2019-04-11T03:23:27.855Z,3.55
2019-04-11T03:25:58.313Z,3.54
2019-04-11T03:28:31.237Z,3.56
2019-04-11T03:31:38.275Z,3.58
2019-04-11T03:37:01.060Z,3.49
2019-04-11T03:39:00.350Z,3.43
2019-04-11T03:41:24.882Z,3.38
2019-04-11T03:43:50.965Z,3.35
2019-04-11T03:46:30.199Z,3.27
2019-04-11T03:48:55.744Z,3.23
2019-04-11T03:51:18.301Z,3.22
2019-04-11T03:53:49.041Z,3.22
2019-04-11T03:56:21.805Z,3.20
2019-04-11T03:58:50.512Z,3.20
2019-04-11T04:01:22.637Z,3.16
2019-04-11T04:03:54.056Z,3.16
2019-04-11T04:06:25.366Z,3.10
2019-04-11T04:08:55.573Z,3.13
2019-04-11T04:11:27.685Z,3.13
2019-04-11T04:14:16.899Z,3.14
2019-04-11T04:17:04.136Z,3.16
2019-04-11T04:19:45.658Z,3.13
2019-04-11T04:22:22.903Z,3.07
2019-04-11T04:24:55.843Z,3.09
2019-04-11T04:27:28.062Z,3.04
2019-04-11T04:30:00.545Z,3.05
2019-04-11T04:32:32.601Z,3.02
2019-04-11T04:35:07.241Z,2.98
2019-04-11T04:37:36.596Z,2.98
2019-04-11T04:40:23.905Z,2.97
2019-04-11T04:42:45.836Z,2.97
2019-04-11T04:45:13.626Z,2.95
2019-04-11T04:47:47.664Z,2.97
2019-04-11T04:50:13.839Z,3.00
2019-04-11T04:52:44.994Z,3.01
2019-04-11T04:55:15.059Z,3.01
2019-04-11T04:57:46.649Z,3.01
2019-04-11T05:00:16.637Z,2.94
2019-04-11T05:02:54.859Z,2.95
2019-04-11T05:05:38.274Z,2.92
2019-04-11T05:08:08.438Z,2.91
2019-04-11T05:10:40.308Z,2.91
2019-04-11T05:13:11.904Z,2.83
2019-04-11T05:15:43.586Z,2.82
2019-04-11T05:18:15.682Z,2.81
2019-04-11T05:20:46.325Z,2.80
2019-04-11T05:23:16.972Z,2.86
2019-04-11T05:25:47.034Z,2.90
2019-04-11T05:28:16.725Z,2.93
2019-04-11T05:30:46.554Z,2.98
2019-04-11T05:33:17.822Z,2.98
2019-04-11T05:35:48.059Z,2.98
2019-04-11T05:38:18.889Z,3.00
2019-04-11T05:40:48.660Z,3.09
2019-04-11T05:43:18.578Z,3.17
2019-04-11T05:45:53.611Z,3.20
2019-04-11T05:48:41.146Z,3.22
2019-04-11T05:51:11.160Z,3.29
2019-04-11T05:53:41.666Z,3.34
2019-04-11T05:56:13.942Z,3.37
2019-04-11T05:58:46.822Z,3.42
2019-04-11T06:01:24.418Z,3.42
2019-04-11T06:03:55.608Z,3.43
2019-04-11T06:06:37.743Z,3.41
2019-04-11T06:09:12.023Z,3.42
2019-04-11T06:12:03.914Z,3.43
2019-04-11T06:14:41.642Z,3.51
2019-04-11T06:17:14.802Z,3.58
2019-04-11T06:20:14.441Z,3.63
2019-04-11T06:22:51.001Z,3.76
2019-04-11T06:25:46.782Z,3.84
2019-04-11T06:28:22.100Z,3.90
2019-04-11T06:31:09.656Z,4.02
2019-04-11T06:33:48.983Z,4.09
2019-04-11T06:36:39.200Z,4.14
2019-04-11T06:39:17.314Z,4.17
2019-04-11T06:41:56.971Z,4.29
2019-04-11T06:44:44.383Z,4.36
2019-04-11T06:47:32.661Z,4.42
2019-04-11T06:50:27.602Z,4.46
2019-04-11T06:52:58.186Z,4.52
2019-04-11T06:55:46.808Z,4.61
2019-04-11T06:58:25.640Z,4.72
2019-04-11T07:01:01.326Z,4.83
2019-04-11T07:03:34.996Z,4.94
2019-04-11T07:06:13.289Z,5.09
2019-04-11T07:08:52.223Z,5.23
2019-04-11T07:11:25.549Z,5.48
2019-04-11T07:14:08.945Z,5.77
2019-04-11T07:17:04.081Z,6.12
2019-04-11T07:20:00.271Z,6.51
2019-04-11T07:22:48.827Z,6.85
2019-04-11T07:25:37.409Z,7.24
2019-04-11T07:28:14.462Z,7.64
2019-04-11T07:31:19.306Z,7.96
2019-04-11T07:34:08.632Z,8.08
2019-04-11T07:36:57.928Z,8.27
2019-04-11T07:39:51.537Z,8.31
2019-04-11T07:42:46.969Z,8.58
2019-04-11T07:46:16.815Z,8.78
2019-04-11T07:48:46.986Z,9.10
2019-04-11T07:51:42.864Z,9.27
2019-04-11T07:54:22.216Z,9.51
2019-04-11T07:57:17.266Z,9.90
2019-04-11T08:00:20.478Z,10.02
2019-04-11T08:03:12.373Z,10.19
2019-04-11T08:06:16.348Z,10.31
2019-04-11T08:09:05.024Z,10.64
2019-04-11T08:11:40.664Z,10.79
2019-04-11T08:14:44.873Z,11.06
2019-04-11T08:17:40.078Z,11.20
2019-04-11T08:20:25.668Z,11.53
2019-04-11T08:23:00.806Z,11.67
2019-04-11T08:25:49.307Z,11.90
2019-04-11T08:28:20.511Z,12.11
2019-04-11T08:31:13.242Z,12.19
2019-04-11T08:33:43.578Z,12.21
2019-04-11T08:36:29.480Z,12.28
2019-04-11T08:39:00.687Z,12.26
2019-04-11T08:41:49.566Z,12.34
2019-04-11T08:44:23.798Z,12.33
2019-04-11T08:46:58.243Z,12.48
2019-04-11T08:49:37.796Z,12.53
2019-04-11T08:52:20.889Z,12.53
2019-04-11T08:55:17.126Z,12.71
2019-04-11T08:57:50.465Z,12.72
2019-04-11T09:00:28.836Z,12.93
2019-04-11T09:03:23.806Z,12.93
2019-04-11T09:06:02.711Z,13.16
2019-04-11T09:09:00.657Z,13.42
2019-04-11T09:11:36.645Z,13.67
2019-04-11T09:14:22.190Z,13.79
2019-04-11T09:17:10.144Z,13.96
2019-04-11T09:20:03.073Z,14.07
2019-04-11T09:22:41.642Z,14.29
2019-04-11T09:25:34.731Z,14.37
2019-04-11T09:28:13.926Z,14.33
2019-04-11T09:31:19.155Z,14.37
2019-04-11T09:34:05.794Z,14.42
2019-04-11T09:36:55.439Z,14.52
2019-04-11T09:39:43.658Z,14.43
2019-04-11T09:42:31.077Z,14.64
2019-04-11T09:45:21.537Z,14.99
2019-04-11T09:48:24.561Z,15.04
2019-04-11T09:51:13.604Z,14.77
2019-04-11T09:53:45.131Z,14.29
2019-04-11T09:56:33.299Z,14.03
2019-04-11T09:59:08.700Z,14.12
2019-04-11T10:02:02.377Z,14.25
2019-04-11T10:04:32.393Z,14.20
2019-04-11T10:07:21.726Z,14.36
2019-04-11T10:10:17.191Z,14.32
2019-04-11T10:13:04.715Z,14.15
2019-04-11T10:15:47.287Z,13.69
2019-04-11T10:18:43.671Z,13.40
2019-04-11T10:21:15.133Z,13.39
2019-04-11T10:23:56.811Z,13.43
2019-04-11T10:26:28.780Z,13.30
2019-04-11T10:29:33.372Z,13.26
2019-04-11T10:32:06.620Z,13.15
2019-04-11T10:34:45.882Z,13.19
2019-04-11T10:37:18.162Z,13.15
2019-04-11T10:40:05.973Z,13.15
2019-04-11T10:42:36.847Z,13.58
2019-04-11T10:45:26.894Z,13.87
2019-04-11T10:47:58.868Z,13.94
2019-04-11T10:50:40.887Z,13.76
2019-04-11T10:53:11.045Z,13.71
2019-04-11T10:56:04.253Z,13.72
2019-04-11T10:58:38.251Z,13.91
2019-04-11T11:01:28.787Z,14.42
2019-04-11T11:04:05.014Z,14.61
2019-04-11T11:06:35.832Z,14.76
2019-04-11T11:09:16.204Z,15.03
2019-04-11T11:11:52.617Z,15.20
2019-04-11T11:14:53.495Z,15.51
2019-04-11T11:17:52.671Z,15.52
2019-04-11T11:20:38.539Z,15.22
2019-04-11T11:23:31.476Z,15.16
2019-04-11T11:26:12.905Z,15.05
2019-04-11T11:29:15.240Z,14.75
2019-04-11T11:31:56.475Z,14.75
2019-04-11T11:34:36.756Z,14.87
2019-04-11T11:37:18.193Z,14.82
2019-04-11T11:40:14.893Z,14.81
2019-04-11T11:43:01.573Z,14.79
2019-04-11T11:45:54.565Z,14.90
2019-04-11T11:48:31.422Z,15.05
2019-04-11T11:51:05.801Z,14.84
2019-04-11T11:53:57.661Z,14.89
2019-04-11T11:56:28.001Z,15.05
2019-04-11T11:59:09.133Z,15.08
2019-04-11T12:01:48.024Z,15.02
2019-04-11T12:04:36.006Z,14.67
2019-04-11T12:07:07.546Z,14.58
2019-04-11T12:10:13.359Z,14.55
2019-04-11T12:12:50.404Z,14.44
2019-04-11T12:15:51.867Z,14.45
2019-04-11T12:18:30.227Z,14.62
2019-04-11T12:21:03.302Z,14.50
2019-04-11T12:24:00.687Z,14.76
2019-04-11T12:26:28.801Z,15.15
2019-04-11T12:29:21.853Z,15.46
2019-04-11T12:31:55.690Z,15.57
2019-04-11T12:34:40.748Z,15.41
2019-04-11T12:37:25.775Z,15.20
2019-04-11T12:40:17.767Z,14.99
2019-04-11T12:42:47.435Z,14.60
2019-04-11T12:45:51.645Z,14.56
2019-04-11T12:48:25.972Z,14.41
2019-04-11T12:51:13.475Z,14.32
2019-04-11T12:53:45.060Z,14.23
2019-04-11T12:56:40.715Z,14.15
2019-04-11T12:59:17.128Z,14.23
2019-04-11T13:02:04.338Z,14.38
2019-04-11T13:04:36.336Z,14.37
2019-04-11T13:07:32.895Z,14.22
2019-04-11T13:10:11.417Z,14.10
2019-04-11T13:12:58.606Z,13.94
2019-04-11T13:15:40.554Z,14.02
2019-04-11T13:18:24.730Z,13.90
2019-04-11T13:21:02.260Z,13.86
2019-04-11T13:23:51.229Z,13.81
2019-04-11T13:26:38.809Z,13.82
2019-04-11T13:29:37.760Z,13.83
2019-04-11T13:32:07.206Z,13.71
2019-04-11T13:34:36.435Z,13.72
2019-04-11T13:37:05.376Z,13.72
2019-04-11T13:39:34.556Z,13.64
2019-04-11T13:42:04.479Z,13.43
2019-04-11T13:44:33.291Z,13.31
2019-04-11T13:47:02.395Z,13.31
2019-04-11T13:49:31.194Z,13.40
2019-04-11T13:52:00.440Z,13.47
2019-04-11T13:54:29.259Z,13.43
2019-04-11T13:56:58.091Z,13.24
2019-04-11T13:59:26.872Z,13.18
2019-04-11T14:01:55.768Z,13.17
2019-04-11T14:04:24.641Z,13.24
2019-04-11T14:06:53.458Z,13.12
2019-04-11T14:09:22.423Z,13.09
2019-04-11T14:11:54.725Z,13.06
2019-04-11T14:14:23.607Z,13.00
2019-04-11T14:16:52.680Z,12.94
2019-04-11T14:19:21.499Z,12.92
2019-04-11T14:21:49.189Z,12.90
2019-04-11T14:24:18.283Z,12.79
2019-04-11T14:26:47.401Z,12.77
2019-04-11T14:29:16.411Z,12.78
2019-04-11T14:31:45.306Z,12.72
2019-04-11T14:34:14.162Z,12.72
2019-04-11T14:36:43.035Z,12.83
2019-04-11T14:39:12.459Z,12.92
2019-04-11T14:41:42.188Z,13.01
2019-04-11T14:44:16.454Z,12.99
2019-04-11T14:46:45.947Z,12.89
2019-04-11T14:49:14.763Z,12.80
2019-04-11T14:51:46.276Z,12.62
2019-04-11T14:54:17.272Z,12.57
2019-04-11T14:56:47.681Z,12.53
2019-04-11T14:59:16.450Z,12.43
2019-04-11T15:01:45.274Z,12.39
2019-04-11T15:04:14.122Z,12.34
2019-04-11T15:06:44.734Z,12.32
2019-04-11T15:09:14.762Z,12.27
2019-04-11T15:11:47.174Z,12.26
2019-04-11T15:14:15.739Z,12.34
2019-04-11T15:16:46.008Z,12.43
2019-04-11T15:19:15.017Z,12.59
2019-04-11T15:21:44.009Z,12.62
2019-04-11T15:24:12.812Z,12.57
2019-04-11T15:26:41.802Z,12.61
2019-04-11T15:29:13.560Z,12.57
2019-04-11T15:31:41.193Z,12.52
2019-04-11T15:34:09.995Z,12.51
2019-04-11T15:36:41.874Z,12.44
2019-04-11T15:39:30.847Z,12.37
2019-04-11T15:42:02.400Z,12.37
2019-04-11T15:44:49.535Z,12.38
2019-04-11T15:47:20.285Z,12.35
2019-04-11T15:50:10.266Z,12.25
2019-04-11T15:52:48.744Z,12.15
2019-04-11T15:55:50.134Z,12.05
2019-04-11T15:58:20.870Z,12.03
2019-04-11T16:01:04.262Z,11.90
2019-04-11T16:03:32.973Z,11.96
2019-04-11T16:06:39.041Z,11.98
2019-04-11T16:09:13.564Z,11.91
2019-04-11T16:11:55.285Z,11.96
2019-04-11T16:14:50.660Z,11.93
2019-04-11T16:17:39.435Z,11.91
2019-04-11T16:20:18.763Z,11.93
2019-04-11T16:23:10.283Z,11.81
2019-04-11T16:25:43.843Z,11.72
2019-04-11T16:28:38.966Z,11.63
2019-04-11T16:31:10.702Z,11.56
2019-04-11T16:34:06.601Z,11.57
2019-04-11T16:36:54.282Z,11.58
2019-04-11T16:39:49.972Z,11.60
2019-04-11T16:42:39.879Z,11.60
2019-04-11T16:45:31.742Z,11.60
2019-04-11T16:48:16.563Z,11.43
2019-04-11T16:50:46.473Z,11.29
2019-04-11T16:53:16.405Z,11.25
2019-04-11T16:55:47.111Z,11.20
2019-04-11T16:58:19.626Z,11.19
2019-04-11T17:00:52.735Z,11.18
2019-04-11T17:03:24.843Z,11.21
2019-04-11T17:06:00.237Z,11.19
2019-04-11T17:08:35.257Z,11.12
2019-04-11T17:11:14.330Z,11.10
2019-04-11T17:13:45.260Z,11.09
2019-04-11T17:16:17.108Z,11.11
2019-04-11T17:18:47.016Z,11.07
2019-04-11T17:21:16.866Z,11.08
2019-04-11T17:23:47.732Z,11.11
2019-04-11T17:26:22.921Z,11.14
2019-04-11T17:28:53.550Z,11.06
2019-04-11T17:31:25.719Z,11.07
2019-04-11T17:33:56.446Z,11.06
2019-04-11T17:36:25.195Z,11.05
2019-04-11T17:38:55.313Z,10.97
2019-04-11T17:41:25.459Z,10.97
2019-04-11T17:43:55.206Z,10.92
2019-04-11T17:46:26.925Z,10.92
2019-04-11T17:48:56.584Z,10.89
2019-04-11T17:51:27.064Z,10.83
2019-04-11T17:53:57.009Z,10.86
2019-04-11T17:56:27.064Z,10.79
2019-04-11T17:58:58.749Z,10.74
2019-04-11T18:01:29.068Z,10.65
2019-04-11T18:03:59.398Z,10.62
2019-04-11T18:06:29.411Z,10.56
2019-04-11T18:08:59.343Z,10.52
2019-04-11T18:11:30.099Z,10.51
2019-04-11T18:14:02.044Z,10.45
2019-04-11T18:16:32.084Z,10.42
2019-04-11T18:19:05.732Z,10.35
2019-04-11T18:21:34.893Z,10.27
2019-04-11T18:24:06.071Z,10.28
2019-04-11T18:26:36.035Z,10.30
2019-04-11T18:29:06.373Z,10.26
2019-04-11T18:31:36.733Z,10.24
2019-04-11T18:34:07.647Z,10.21
2019-04-11T18:36:37.640Z,10.11
2019-04-11T18:39:08.330Z,9.98
2019-04-11T18:41:38.601Z,9.96
2019-04-11T18:44:08.766Z,9.94
2019-04-11T18:46:38.765Z,9.93
2019-04-11T18:49:09.048Z,9.85
2019-04-11T18:51:40.287Z,9.80
2019-04-11T18:54:10.090Z,9.73
2019-04-11T18:56:40.249Z,9.70
2019-04-11T18:59:10.900Z,9.71
2019-04-11T19:01:40.676Z,9.67
2019-04-11T19:04:12.120Z,9.67
2019-04-11T19:06:43.729Z,9.65
2019-04-11T19:09:15.919Z,9.63
2019-04-11T19:11:47.008Z,9.66
2019-04-11T19:14:18.004Z,9.71
2019-04-11T19:16:48.163Z,9.72
2019-04-11T19:19:19.159Z,9.74
2019-04-11T19:21:51.060Z,9.69
2019-04-11T19:24:20.720Z,9.66
2019-04-11T19:26:52.075Z,9.69
2019-04-11T19:29:24.769Z,9.73
2019-04-11T19:31:53.637Z,9.74
2019-04-11T19:34:23.696Z,9.69
2019-04-11T19:36:55.757Z,9.61
2019-04-11T19:39:27.898Z,9.61
2019-04-11T19:41:59.155Z,9.59
2019-04-11T19:44:29.200Z,9.62
2019-04-11T19:46:59.748Z,9.62
2019-04-11T19:49:29.702Z,9.67
2019-04-11T19:52:01.496Z,9.69
2019-04-11T19:54:33.565Z,9.65
2019-04-11T19:57:04.970Z,9.66
2019-04-11T19:59:39.137Z,9.69
2019-04-11T20:02:09.730Z,9.67
2019-04-11T20:04:40.560Z,9.66
2019-04-11T20:07:11.611Z,9.62
2019-04-11T20:09:42.137Z,9.62
2019-04-11T20:12:23.349Z,9.58
2019-04-11T20:14:53.642Z,9.55
2019-04-11T20:17:23.554Z,9.52
2019-04-11T20:20:01.142Z,9.53
2019-04-11T20:22:24.931Z,9.52
2019-04-11T20:24:55.532Z,9.52
2019-04-11T20:27:25.366Z,9.52
2019-04-11T20:29:55.480Z,9.50
2019-04-11T20:32:25.208Z,9.48
2019-04-11T20:34:55.100Z,9.41
2019-04-11T20:37:25.076Z,9.36
2019-04-11T20:39:54.918Z,9.34
2019-04-11T20:42:25.463Z,9.26
2019-04-11T20:44:58.311Z,9.23
2019-04-11T20:47:29.591Z,9.22
2019-04-11T20:49:59.193Z,9.21
2019-04-11T20:52:29.279Z,9.17
2019-04-11T20:54:59.017Z,9.15
2019-04-11T20:57:28.937Z,9.10
2019-04-11T20:59:59.484Z,9.08
2019-04-11T21:02:30.315Z,9.06
2019-04-11T21:05:01.151Z,9.00
2019-04-11T21:07:32.568Z,9.01
2019-04-11T21:10:06.886Z,9.00
2019-04-11T21:12:37.975Z,8.99
2019-04-11T21:15:08.378Z,8.96
2019-04-11T21:18:05.345Z,9.00
2019-04-11T21:20:35.601Z,8.96
2019-04-11T21:23:24.403Z,8.92
2019-04-11T21:25:48.952Z,8.91
2019-04-11T21:28:27.895Z,8.86
2019-04-11T21:31:11.565Z,8.83
2019-04-11T21:34:08.320Z,8.78
2019-04-11T21:36:37.995Z,8.78
2019-04-11T21:39:09.029Z,8.75
2019-04-11T21:41:39.674Z,8.73
2019-04-11T21:44:09.434Z,8.74
2019-04-11T21:46:42.070Z,8.71
2019-04-11T21:49:11.347Z,8.69
2019-04-11T21:51:42.482Z,8.68
2019-04-11T21:54:14.691Z,8.67
2019-04-11T21:56:43.923Z,8.70
2019-04-11T21:59:14.242Z,8.70
2019-04-11T22:01:44.444Z,8.71
2019-04-11T22:04:15.322Z,8.67
2019-04-11T22:06:45.116Z,8.71
2019-04-11T22:09:15.587Z,8.65
2019-04-11T22:11:45.492Z,8.61
2019-04-11T22:14:15.403Z,8.59
2019-04-11T22:16:45.552Z,8.61
2019-04-11T22:19:15.621Z,8.58
2019-04-11T22:21:45.449Z,8.58
2019-04-11T22:24:14.420Z,8.55
2019-04-11T22:26:42.712Z,8.58
2019-04-11T22:29:11.108Z,8.58
2019-04-11T22:31:39.792Z,8.58
2019-04-11T22:34:13.367Z,8.54
2019-04-11T22:36:41.754Z,8.53
2019-04-11T22:39:11.279Z,8.49
2019-04-11T22:41:39.547Z,8.45
2019-04-11T22:44:08.611Z,8.38
2019-04-11T22:46:38.361Z,8.38
2019-04-11T22:49:08.820Z,8.35
2019-04-11T22:51:36.935Z,8.34
2019-04-11T22:54:06.188Z,8.31
2019-04-11T22:56:34.481Z,8.33
2019-04-11T22:59:03.640Z,8.32
2019-04-11T23:01:31.999Z,8.30
2019-04-11T23:04:01.214Z,8.31
2019-04-11T23:06:29.976Z,8.36
2019-04-11T23:08:59.245Z,8.34
2019-04-11T23:11:28.924Z,8.34
2019-04-11T23:13:58.600Z,8.31
2019-04-11T23:16:28.747Z,8.31
2019-04-11T23:18:58.734Z,8.29
2019-04-11T23:21:29.563Z,8.27
2019-04-11T23:23:59.474Z,8.25
2019-04-11T23:26:29.434Z,8.27
2019-04-11T23:28:59.114Z,8.25
2019-04-11T23:31:28.936Z,8.26
2019-04-11T23:33:58.841Z,8.27
2019-04-11T23:36:28.758Z,8.31
2019-04-11T23:38:58.663Z,8.30
2019-04-11T23:41:28.412Z,8.21
2019-04-11T23:43:58.077Z,8.18
2019-04-11T23:46:27.819Z,8.21
2019-04-11T23:48:57.712Z,8.18
2019-04-11T23:51:27.615Z,8.18
2019-04-11T23:53:59.758Z,8.19
2019-04-11T23:56:30.585Z,8.21
2019-04-11T23:59:02.117Z,8.21
